sensor_id;sensor_type;location;lat;lon;timestamp;P1;durP1;ratioP1;P2;durP2;ratioP2
76610;SDS011;65503;48.534;9.062;2023-04-20T00:00:24;7.50;;;3.60;;
76610;SDS011;65503;48.534;9.062;2023-04-20T00:02:51;7.93;;;4.03;;
76610;SDS011;65503;48.534;9.062;2023-04-20T00:05:18;8.23;;;3.78;;
76610;SDS011;65503;48.534;9.062;2023-04-20T00:07:44;7.82;;;3.50;;
76610;SDS011;65503;48.534;9.062;2023-04-20T00:10:11;8.82;;;3.67;;
76610;SDS011;65503;48.534;9.062;2023-04-20T00:12:40;8.07;;;3.92;;
76610;SDS011;65503;48.534;9.062;2023-04-20T00:15:07;8.35;;;3.72;;
76610;SDS011;65503;48.534;9.062;2023-04-20T00:17:33;8.82;;;4.03;;
76610;SDS011;65503;48.534;9.062;2023-04-20T00:20:01;6.53;;;3.65;;
76610;SDS011;65503;48.534;9.062;2023-04-20T00:22:29;9.15;;;4.78;;
76610;SDS011;65503;48.534;9.062;2023-04-20T00:24:55;8.00;;;3.95;;
76610;SDS011;65503;48.534;9.062;2023-04-20T00:27:22;7.97;;;3.88;;
76610;SDS011;65503;48.534;9.062;2023-04-20T00:29:48;7.35;;;3.92;;
76610;SDS011;65503;48.534;9.062;2023-04-20T00:32:15;12.50;;;4.75;;
76610;SDS011;65503;48.534;9.062;2023-04-20T00:34:41;8.18;;;4.22;;
76610;SDS011;65503;48.534;9.062;2023-04-20T00:37:08;10.20;;;4.18;;
76610;SDS011;65503;48.534;9.062;2023-04-20T00:39:34;8.48;;;4.10;;
76610;SDS011;65503;48.534;9.062;2023-04-20T00:42:05;10.25;;;4.20;;
76610;SDS011;65503;48.534;9.062;2023-04-20T00:44:34;7.65;;;4.32;;
76610;SDS011;65503;48.534;9.062;2023-04-20T00:47:01;8.35;;;4.05;;
76610;SDS011;65503;48.534;9.062;2023-04-20T00:49:28;7.90;;;3.85;;
76610;SDS011;65503;48.534;9.062;2023-04-20T00:51:56;6.68;;;3.67;;
76610;SDS011;65503;48.534;9.062;2023-04-20T00:54:24;9.45;;;3.97;;
76610;SDS011;65503;48.534;9.062;2023-04-20T00:56:53;8.18;;;4.47;;
76610;SDS011;65503;48.534;9.062;2023-04-20T00:59:21;7.95;;;4.40;;
76610;SDS011;65503;48.534;9.062;2023-04-20T01:01:47;9.25;;;4.57;;
76610;SDS011;65503;48.534;9.062;2023-04-20T01:04:14;7.35;;;4.53;;
76610;SDS011;65503;48.534;9.062;2023-04-20T01:06:42;9.95;;;4.90;;
76610;SDS011;65503;48.534;9.062;2023-04-20T01:09:09;7.15;;;4.07;;
76610;SDS011;65503;48.534;9.062;2023-04-20T01:11:35;10.07;;;4.68;;
76610;SDS011;65503;48.534;9.062;2023-04-20T01:14:02;8.20;;;4.72;;
76610;SDS011;65503;48.534;9.062;2023-04-20T01:16:29;8.68;;;4.70;;
76610;SDS011;65503;48.534;9.062;2023-04-20T01:18:56;7.63;;;4.47;;
76610;SDS011;65503;48.534;9.062;2023-04-20T01:21:22;9.63;;;4.43;;
76610;SDS011;65503;48.534;9.062;2023-04-20T01:23:49;8.55;;;4.85;;
76610;SDS011;65503;48.534;9.062;2023-04-20T01:26:16;9.80;;;4.38;;
76610;SDS011;65503;48.534;9.062;2023-04-20T01:28:44;8.85;;;4.65;;
76610;SDS011;65503;48.534;9.062;2023-04-20T01:31:11;8.23;;;4.28;;
76610;SDS011;65503;48.534;9.062;2023-04-20T01:33:38;9.73;;;5.05;;
76610;SDS011;65503;48.534;9.062;2023-04-20T01:36:06;9.70;;;4.55;;
76610;SDS011;65503;48.534;9.062;2023-04-20T01:38:34;11.80;;;5.00;;
76610;SDS011;65503;48.534;9.062;2023-04-20T01:41:02;12.55;;;5.57;;
76610;SDS011;65503;48.534;9.062;2023-04-20T01:43:33;9.23;;;5.20;;
76610;SDS011;65503;48.534;9.062;2023-04-20T01:46:01;10.80;;;5.75;;
76610;SDS011;65503;48.534;9.062;2023-04-20T01:48:27;10.20;;;5.20;;
76610;SDS011;65503;48.534;9.062;2023-04-20T01:50:54;9.68;;;5.40;;
76610;SDS011;65503;48.534;9.062;2023-04-20T01:53:20;13.75;;;5.10;;
76610;SDS011;65503;48.534;9.062;2023-04-20T01:55:48;10.13;;;5.85;;
76610;SDS011;65503;48.534;9.062;2023-04-20T01:58:15;14.18;;;5.28;;
76610;SDS011;65503;48.534;9.062;2023-04-20T02:00:41;11.05;;;4.68;;
76610;SDS011;65503;48.534;9.062;2023-04-20T02:03:08;10.75;;;5.35;;
76610;SDS011;65503;48.534;9.062;2023-04-20T02:05:35;12.05;;;6.10;;
76610;SDS011;65503;48.534;9.062;2023-04-20T02:08:01;10.63;;;5.30;;
76610;SDS011;65503;48.534;9.062;2023-04-20T02:10:28;9.77;;;4.95;;
76610;SDS011;65503;48.534;9.062;2023-04-20T02:12:54;10.13;;;5.18;;
76610;SDS011;65503;48.534;9.062;2023-04-20T02:15:21;10.95;;;6.10;;
76610;SDS011;65503;48.534;9.062;2023-04-20T02:17:47;11.35;;;5.30;;
76610;SDS011;65503;48.534;9.062;2023-04-20T02:20:17;13.18;;;6.15;;
76610;SDS011;65503;48.534;9.062;2023-04-20T02:22:46;11.65;;;5.90;;
76610;SDS011;65503;48.534;9.062;2023-04-20T02:25:13;11.35;;;6.15;;
76610;SDS011;65503;48.534;9.062;2023-04-20T02:27:40;12.35;;;6.35;;
76610;SDS011;65503;48.534;9.062;2023-04-20T02:30:07;11.80;;;5.93;;
76610;SDS011;65503;48.534;9.062;2023-04-20T02:32:34;9.95;;;5.18;;
76610;SDS011;65503;48.534;9.062;2023-04-20T02:35:01;7.93;;;4.57;;
76610;SDS011;65503;48.534;9.062;2023-04-20T02:37:29;9.30;;;5.15;;
76610;SDS011;65503;48.534;9.062;2023-04-20T02:39:55;9.45;;;4.43;;
76610;SDS011;65503;48.534;9.062;2023-04-20T02:42:22;9.52;;;4.32;;
76610;SDS011;65503;48.534;9.062;2023-04-20T02:44:48;10.23;;;5.60;;
76610;SDS011;65503;48.534;9.062;2023-04-20T02:47:15;9.70;;;5.00;;
76610;SDS011;65503;48.534;9.062;2023-04-20T02:49:42;9.73;;;4.68;;
76610;SDS011;65503;48.534;9.062;2023-04-20T02:52:08;13.00;;;5.47;;
76610;SDS011;65503;48.534;9.062;2023-04-20T02:54:35;13.18;;;6.10;;
76610;SDS011;65503;48.534;9.062;2023-04-20T02:57:01;11.82;;;6.25;;
76610;SDS011;65503;48.534;9.062;2023-04-20T02:59:28;9.95;;;5.53;;
76610;SDS011;65503;48.534;9.062;2023-04-20T03:01:55;9.02;;;5.22;;
76610;SDS011;65503;48.534;9.062;2023-04-20T03:04:21;9.90;;;4.95;;
76610;SDS011;65503;48.534;9.062;2023-04-20T03:06:48;10.40;;;5.13;;
76610;SDS011;65503;48.534;9.062;2023-04-20T03:09:15;13.38;;;6.45;;
76610;SDS011;65503;48.534;9.062;2023-04-20T03:11:43;10.60;;;6.30;;
76610;SDS011;65503;48.534;9.062;2023-04-20T03:14:10;11.38;;;5.65;;
76610;SDS011;65503;48.534;9.062;2023-04-20T03:16:37;10.65;;;5.63;;
76610;SDS011;65503;48.534;9.062;2023-04-20T03:19:03;11.60;;;6.30;;
76610;SDS011;65503;48.534;9.062;2023-04-20T03:21:30;13.25;;;6.82;;
76610;SDS011;65503;48.534;9.062;2023-04-20T03:23:58;10.55;;;5.70;;
76610;SDS011;65503;48.534;9.062;2023-04-20T03:26:25;13.30;;;5.93;;
76610;SDS011;65503;48.534;9.062;2023-04-20T03:28:52;10.18;;;5.30;;
76610;SDS011;65503;48.534;9.062;2023-04-20T03:31:18;10.23;;;5.35;;
76610;SDS011;65503;48.534;9.062;2023-04-20T03:33:45;10.77;;;6.05;;
76610;SDS011;65503;48.534;9.062;2023-04-20T03:36:11;13.27;;;6.38;;
76610;SDS011;65503;48.534;9.062;2023-04-20T03:38:38;13.57;;;6.13;;
76610;SDS011;65503;48.534;9.062;2023-04-20T03:41:04;13.13;;;6.20;;
76610;SDS011;65503;48.534;9.062;2023-04-20T03:45:59;12.65;;;5.72;;
76610;SDS011;65503;48.534;9.062;2023-04-20T03:48:26;17.95;;;7.80;;
76610;SDS011;65503;48.534;9.062;2023-04-20T03:50:53;15.77;;;8.68;;
76610;SDS011;65503;48.534;9.062;2023-04-20T03:53:19;14.93;;;7.53;;
76610;SDS011;65503;48.534;9.062;2023-04-20T03:55:46;15.25;;;7.72;;
76610;SDS011;65503;48.534;9.062;2023-04-20T03:58:12;16.13;;;8.63;;
76610;SDS011;65503;48.534;9.062;2023-04-20T04:00:39;15.80;;;8.00;;
76610;SDS011;65503;48.534;9.062;2023-04-20T04:03:06;12.85;;;7.43;;
76610;SDS011;65503;48.534;9.062;2023-04-20T04:05:32;13.50;;;7.93;;
76610;SDS011;65503;48.534;9.062;2023-04-20T04:07:59;16.65;;;7.25;;
76610;SDS011;65503;48.534;9.062;2023-04-20T04:10:26;15.25;;;7.70;;
76610;SDS011;65503;48.534;9.062;2023-04-20T04:12:52;14.70;;;7.95;;
76610;SDS011;65503;48.534;9.062;2023-04-20T04:15:19;13.18;;;7.07;;
76610;SDS011;65503;48.534;9.062;2023-04-20T04:17:45;15.60;;;8.88;;
76610;SDS011;65503;48.534;9.062;2023-04-20T04:20:12;14.70;;;8.40;;
76610;SDS011;65503;48.534;9.062;2023-04-20T04:22:39;13.60;;;7.32;;
76610;SDS011;65503;48.534;9.062;2023-04-20T04:25:06;13.82;;;7.05;;
76610;SDS011;65503;48.534;9.062;2023-04-20T04:27:33;14.30;;;7.20;;
76610;SDS011;65503;48.534;9.062;2023-04-20T04:30:00;16.25;;;7.03;;
76610;SDS011;65503;48.534;9.062;2023-04-20T04:32:28;14.55;;;7.25;;
76610;SDS011;65503;48.534;9.062;2023-04-20T04:34:54;14.38;;;7.72;;
76610;SDS011;65503;48.534;9.062;2023-04-20T04:37:21;13.90;;;6.03;;
76610;SDS011;65503;48.534;9.062;2023-04-20T04:39:49;14.13;;;6.75;;
76610;SDS011;65503;48.534;9.062;2023-04-20T04:42:16;13.50;;;6.60;;
76610;SDS011;65503;48.534;9.062;2023-04-20T04:44:42;12.52;;;7.00;;
76610;SDS011;65503;48.534;9.062;2023-04-20T04:47:10;11.95;;;6.45;;
76610;SDS011;65503;48.534;9.062;2023-04-20T04:49:37;10.70;;;5.88;;
76610;SDS011;65503;48.534;9.062;2023-04-20T04:52:06;10.07;;;6.00;;
76610;SDS011;65503;48.534;9.062;2023-04-20T04:54:33;10.90;;;6.00;;
76610;SDS011;65503;48.534;9.062;2023-04-20T04:57:00;11.77;;;6.60;;
76610;SDS011;65503;48.534;9.062;2023-04-20T04:59:26;17.67;;;8.20;;
76610;SDS011;65503;48.534;9.062;2023-04-20T05:01:53;14.27;;;7.65;;
76610;SDS011;65503;48.534;9.062;2023-04-20T05:04:19;11.23;;;6.88;;
76610;SDS011;65503;48.534;9.062;2023-04-20T05:06:46;14.15;;;6.60;;
76610;SDS011;65503;48.534;9.062;2023-04-20T05:09:12;14.55;;;7.18;;
76610;SDS011;65503;48.534;9.062;2023-04-20T05:11:39;14.52;;;7.68;;
76610;SDS011;65503;48.534;9.062;2023-04-20T05:14:05;13.82;;;7.13;;
76610;SDS011;65503;48.534;9.062;2023-04-20T05:16:32;11.50;;;6.68;;
76610;SDS011;65503;48.534;9.062;2023-04-20T05:18:58;16.60;;;6.35;;
76610;SDS011;65503;48.534;9.062;2023-04-20T05:21:25;10.90;;;6.10;;
76610;SDS011;65503;48.534;9.062;2023-04-20T05:23:51;10.27;;;6.32;;
76610;SDS011;65503;48.534;9.062;2023-04-20T05:26:18;11.88;;;6.72;;
76610;SDS011;65503;48.534;9.062;2023-04-20T05:28:44;12.25;;;6.47;;
76610;SDS011;65503;48.534;9.062;2023-04-20T05:31:11;11.52;;;6.72;;
76610;SDS011;65503;48.534;9.062;2023-04-20T05:33:37;12.45;;;6.88;;
76610;SDS011;65503;48.534;9.062;2023-04-20T05:36:07;11.90;;;7.03;;
76610;SDS011;65503;48.534;9.062;2023-04-20T05:38:33;11.68;;;6.50;;
76610;SDS011;65503;48.534;9.062;2023-04-20T05:41:00;11.98;;;6.13;;
76610;SDS011;65503;48.534;9.062;2023-04-20T05:43:26;10.95;;;6.60;;
76610;SDS011;65503;48.534;9.062;2023-04-20T05:45:53;10.23;;;5.47;;
76610;SDS011;65503;48.534;9.062;2023-04-20T05:48:19;10.55;;;5.50;;
76610;SDS011;65503;48.534;9.062;2023-04-20T05:50:46;12.02;;;5.13;;
76610;SDS011;65503;48.534;9.062;2023-04-20T05:53:13;7.93;;;4.68;;
76610;SDS011;65503;48.534;9.062;2023-04-20T05:55:39;9.40;;;5.05;;
76610;SDS011;65503;48.534;9.062;2023-04-20T05:58:06;11.52;;;5.43;;
76610;SDS011;65503;48.534;9.062;2023-04-20T06:00:33;9.55;;;4.93;;
76610;SDS011;65503;48.534;9.062;2023-04-20T06:02:59;10.20;;;4.80;;
76610;SDS011;65503;48.534;9.062;2023-04-20T06:05:26;10.23;;;4.97;;
76610;SDS011;65503;48.534;9.062;2023-04-20T06:07:53;11.23;;;5.05;;
76610;SDS011;65503;48.534;9.062;2023-04-20T06:10:19;14.27;;;5.20;;
76610;SDS011;65503;48.534;9.062;2023-04-20T06:12:46;9.27;;;5.15;;
76610;SDS011;65503;48.534;9.062;2023-04-20T06:15:12;9.95;;;5.07;;
76610;SDS011;65503;48.534;9.062;2023-04-20T06:17:39;14.63;;;5.00;;
76610;SDS011;65503;48.534;9.062;2023-04-20T06:20:09;9.00;;;5.18;;
76610;SDS011;65503;48.534;9.062;2023-04-20T06:22:40;9.32;;;4.88;;
76610;SDS011;65503;48.534;9.062;2023-04-20T06:25:09;10.15;;;5.30;;
76610;SDS011;65503;48.534;9.062;2023-04-20T06:27:36;9.75;;;4.15;;
76610;SDS011;65503;48.534;9.062;2023-04-20T06:30:03;8.95;;;4.85;;
76610;SDS011;65503;48.534;9.062;2023-04-20T06:32:30;11.88;;;5.18;;
76610;SDS011;65503;48.534;9.062;2023-04-20T06:34:57;10.88;;;5.07;;
76610;SDS011;65503;48.534;9.062;2023-04-20T06:37:23;11.20;;;5.20;;
76610;SDS011;65503;48.534;9.062;2023-04-20T06:39:53;8.57;;;4.82;;
76610;SDS011;65503;48.534;9.062;2023-04-20T06:42:22;9.23;;;4.65;;
76610;SDS011;65503;48.534;9.062;2023-04-20T06:44:49;9.00;;;4.28;;
76610;SDS011;65503;48.534;9.062;2023-04-20T06:47:16;8.88;;;4.68;;
76610;SDS011;65503;48.534;9.062;2023-04-20T06:49:42;9.85;;;5.05;;
76610;SDS011;65503;48.534;9.062;2023-04-20T06:52:08;9.40;;;4.80;;
76610;SDS011;65503;48.534;9.062;2023-04-20T06:54:35;6.65;;;3.85;;
76610;SDS011;65503;48.534;9.062;2023-04-20T06:57:01;9.98;;;5.05;;
76610;SDS011;65503;48.534;9.062;2023-04-20T06:59:28;11.07;;;5.22;;
76610;SDS011;65503;48.534;9.062;2023-04-20T07:01:54;8.98;;;4.78;;
76610;SDS011;65503;48.534;9.062;2023-04-20T07:04:20;8.13;;;5.13;;
76610;SDS011;65503;48.534;9.062;2023-04-20T07:06:47;10.20;;;4.80;;
76610;SDS011;65503;48.534;9.062;2023-04-20T07:09:18;9.30;;;5.10;;
76610;SDS011;65503;48.534;9.062;2023-04-20T07:11:45;9.75;;;5.63;;
76610;SDS011;65503;48.534;9.062;2023-04-20T07:14:11;11.93;;;6.38;;
76610;SDS011;65503;48.534;9.062;2023-04-20T07:16:38;11.57;;;5.65;;
76610;SDS011;65503;48.534;9.062;2023-04-20T07:19:04;11.30;;;5.65;;
76610;SDS011;65503;48.534;9.062;2023-04-20T07:21:31;9.70;;;5.68;;
76610;SDS011;65503;48.534;9.062;2023-04-20T07:23:58;13.10;;;5.97;;
76610;SDS011;65503;48.534;9.062;2023-04-20T07:26:25;11.90;;;6.47;;
76610;SDS011;65503;48.534;9.062;2023-04-20T07:28:51;10.43;;;6.55;;
76610;SDS011;65503;48.534;9.062;2023-04-20T07:31:18;13.93;;;7.13;;
76610;SDS011;65503;48.534;9.062;2023-04-20T07:33:44;11.93;;;6.72;;
76610;SDS011;65503;48.534;9.062;2023-04-20T07:36:11;11.63;;;6.88;;
76610;SDS011;65503;48.534;9.062;2023-04-20T07:38:37;12.93;;;7.13;;
76610;SDS011;65503;48.534;9.062;2023-04-20T07:41:07;13.02;;;7.18;;
76610;SDS011;65503;48.534;9.062;2023-04-20T07:43:36;12.23;;;6.15;;
76610;SDS011;65503;48.534;9.062;2023-04-20T07:46:04;14.77;;;7.45;;
76610;SDS011;65503;48.534;9.062;2023-04-20T07:48:32;12.90;;;6.50;;
76610;SDS011;65503;48.534;9.062;2023-04-20T07:51:01;14.50;;;7.70;;
76610;SDS011;65503;48.534;9.062;2023-04-20T07:53:28;9.73;;;6.10;;
76610;SDS011;65503;48.534;9.062;2023-04-20T07:55:54;17.42;;;7.57;;
76610;SDS011;65503;48.534;9.062;2023-04-20T07:58:21;12.00;;;6.70;;
76610;SDS011;65503;48.534;9.062;2023-04-20T08:00:47;9.35;;;5.75;;
76610;SDS011;65503;48.534;9.062;2023-04-20T08:03:14;10.90;;;6.57;;
76610;SDS011;65503;48.534;9.062;2023-04-20T08:05:41;14.60;;;7.03;;
76610;SDS011;65503;48.534;9.062;2023-04-20T08:08:08;13.77;;;7.22;;
76610;SDS011;65503;48.534;9.062;2023-04-20T08:10:34;13.93;;;7.57;;
76610;SDS011;65503;48.534;9.062;2023-04-20T08:13:01;17.30;;;7.55;;
76610;SDS011;65503;48.534;9.062;2023-04-20T08:15:28;12.35;;;7.30;;
76610;SDS011;65503;48.534;9.062;2023-04-20T08:17:54;14.02;;;8.15;;
76610;SDS011;65503;48.534;9.062;2023-04-20T08:20:21;14.02;;;8.52;;
76610;SDS011;65503;48.534;9.062;2023-04-20T08:22:47;12.30;;;7.40;;
76610;SDS011;65503;48.534;9.062;2023-04-20T08:27:42;16.10;;;7.30;;
76610;SDS011;65503;48.534;9.062;2023-04-20T08:30:08;13.27;;;7.40;;
76610;SDS011;65503;48.534;9.062;2023-04-20T08:32:35;16.38;;;8.45;;
76610;SDS011;65503;48.534;9.062;2023-04-20T08:35:02;16.15;;;8.05;;
76610;SDS011;65503;48.534;9.062;2023-04-20T08:37:30;13.73;;;7.78;;
76610;SDS011;65503;48.534;9.062;2023-04-20T08:42:24;18.60;;;8.30;;
76610;SDS011;65503;48.534;9.062;2023-04-20T08:44:51;13.93;;;7.55;;
76610;SDS011;65503;48.534;9.062;2023-04-20T08:47:19;15.57;;;7.78;;
76610;SDS011;65503;48.534;9.062;2023-04-20T08:54:41;14.93;;;7.53;;
76610;SDS011;65503;48.534;9.062;2023-04-20T08:57:21;13.07;;;7.20;;
76610;SDS011;65503;48.534;9.062;2023-04-20T08:59:47;13.07;;;7.65;;
76610;SDS011;65503;48.534;9.062;2023-04-20T09:02:14;15.38;;;7.38;;
76610;SDS011;65503;48.534;9.062;2023-04-20T09:04:41;15.75;;;8.13;;
76610;SDS011;65503;48.534;9.062;2023-04-20T09:07:18;13.50;;;7.60;;
76610;SDS011;65503;48.534;9.062;2023-04-20T09:09:55;17.65;;;8.32;;
76610;SDS011;65503;48.534;9.062;2023-04-20T09:12:23;12.30;;;6.88;;
76610;SDS011;65503;48.534;9.062;2023-04-20T09:14:53;14.13;;;7.53;;
76610;SDS011;65503;48.534;9.062;2023-04-20T09:17:30;12.70;;;7.20;;
76610;SDS011;65503;48.534;9.062;2023-04-20T09:19:58;12.57;;;7.25;;
76610;SDS011;65503;48.534;9.062;2023-04-20T09:22:31;11.63;;;6.97;;
76610;SDS011;65503;48.534;9.062;2023-04-20T09:24:59;12.50;;;6.82;;
76610;SDS011;65503;48.534;9.062;2023-04-20T09:27:26;13.27;;;7.20;;
76610;SDS011;65503;48.534;9.062;2023-04-20T09:29:56;13.13;;;7.90;;
76610;SDS011;65503;48.534;9.062;2023-04-20T09:32:26;16.80;;;7.60;;
76610;SDS011;65503;48.534;9.062;2023-04-20T09:34:54;11.82;;;7.13;;
76610;SDS011;65503;48.534;9.062;2023-04-20T09:37:21;12.35;;;6.47;;
76610;SDS011;65503;48.534;9.062;2023-04-20T09:39:48;12.95;;;6.78;;
76610;SDS011;65503;48.534;9.062;2023-04-20T09:42:15;12.45;;;6.40;;
76610;SDS011;65503;48.534;9.062;2023-04-20T09:44:42;13.35;;;6.85;;
76610;SDS011;65503;48.534;9.062;2023-04-20T09:47:15;12.20;;;7.13;;
76610;SDS011;65503;48.534;9.062;2023-04-20T09:49:45;12.43;;;6.80;;
76610;SDS011;65503;48.534;9.062;2023-04-20T09:52:16;12.77;;;6.82;;
76610;SDS011;65503;48.534;9.062;2023-04-20T09:54:44;10.80;;;6.10;;
76610;SDS011;65503;48.534;9.062;2023-04-20T09:57:11;12.45;;;7.07;;
76610;SDS011;65503;48.534;9.062;2023-04-20T09:59:41;11.27;;;6.78;;
76610;SDS011;65503;48.534;9.062;2023-04-20T10:02:09;12.52;;;6.75;;
76610;SDS011;65503;48.534;9.062;2023-04-20T10:04:49;12.85;;;7.05;;
76610;SDS011;65503;48.534;9.062;2023-04-20T10:07:25;10.70;;;6.75;;
76610;SDS011;65503;48.534;9.062;2023-04-20T10:12:50;12.50;;;7.18;;
76610;SDS011;65503;48.534;9.062;2023-04-20T10:15:18;14.43;;;6.95;;
76610;SDS011;65503;48.534;9.062;2023-04-20T10:17:47;14.38;;;7.72;;
76610;SDS011;65503;48.534;9.062;2023-04-20T10:20:17;12.88;;;7.88;;
76610;SDS011;65503;48.534;9.062;2023-04-20T10:23:07;13.38;;;7.78;;
76610;SDS011;65503;48.534;9.062;2023-04-20T10:25:36;13.98;;;7.28;;
76610;SDS011;65503;48.534;9.062;2023-04-20T10:28:03;11.18;;;7.18;;
76610;SDS011;65503;48.534;9.062;2023-04-20T10:30:35;13.63;;;8.02;;
76610;SDS011;65503;48.534;9.062;2023-04-20T10:35:40;13.13;;;7.28;;
76610;SDS011;65503;48.534;9.062;2023-04-20T10:38:12;12.88;;;7.95;;
76610;SDS011;65503;48.534;9.062;2023-04-20T10:40:39;12.88;;;7.95;;
76610;SDS011;65503;48.534;9.062;2023-04-20T10:43:16;12.95;;;8.35;;
76610;SDS011;65503;48.534;9.062;2023-04-20T10:45:44;15.10;;;8.27;;
76610;SDS011;65503;48.534;9.062;2023-04-20T10:48:10;15.73;;;8.48;;
76610;SDS011;65503;48.534;9.062;2023-04-20T10:50:37;16.40;;;9.27;;
76610;SDS011;65503;48.534;9.062;2023-04-20T10:53:04;17.00;;;9.65;;
76610;SDS011;65503;48.534;9.062;2023-04-20T10:55:31;13.25;;;8.38;;
76610;SDS011;65503;48.534;9.062;2023-04-20T10:57:59;17.10;;;8.48;;
76610;SDS011;65503;48.534;9.062;2023-04-20T11:00:26;15.95;;;8.23;;
76610;SDS011;65503;48.534;9.062;2023-04-20T11:02:54;15.10;;;8.88;;
76610;SDS011;65503;48.534;9.062;2023-04-20T11:05:23;13.88;;;8.40;;
76610;SDS011;65503;48.534;9.062;2023-04-20T11:07:58;16.38;;;9.35;;
76610;SDS011;65503;48.534;9.062;2023-04-20T11:13:05;14.80;;;8.60;;
76610;SDS011;65503;48.534;9.062;2023-04-20T11:15:35;14.65;;;8.45;;
76610;SDS011;65503;48.534;9.062;2023-04-20T11:18:06;12.95;;;7.93;;
76610;SDS011;65503;48.534;9.062;2023-04-20T11:20:33;12.98;;;7.90;;
76610;SDS011;65503;48.534;9.062;2023-04-20T11:22:59;14.18;;;8.40;;
76610;SDS011;65503;48.534;9.062;2023-04-20T11:25:26;11.32;;;6.90;;
76610;SDS011;65503;48.534;9.062;2023-04-20T11:27:53;11.90;;;6.68;;
76610;SDS011;65503;48.534;9.062;2023-04-20T11:30:38;9.98;;;6.32;;
76610;SDS011;65503;48.534;9.062;2023-04-20T11:33:08;12.75;;;7.68;;
76610;SDS011;65503;48.534;9.062;2023-04-20T11:35:39;11.77;;;6.72;;
76610;SDS011;65503;48.534;9.062;2023-04-20T11:38:07;11.75;;;7.40;;
76610;SDS011;65503;48.534;9.062;2023-04-20T11:40:34;13.10;;;7.75;;
76610;SDS011;65503;48.534;9.062;2023-04-20T11:43:01;11.57;;;6.57;;
76610;SDS011;65503;48.534;9.062;2023-04-20T11:45:30;12.10;;;7.13;;
76610;SDS011;65503;48.534;9.062;2023-04-20T11:48:02;13.30;;;7.72;;
76610;SDS011;65503;48.534;9.062;2023-04-20T11:50:29;11.77;;;6.72;;
76610;SDS011;65503;48.534;9.062;2023-04-20T11:52:56;10.35;;;6.72;;
76610;SDS011;65503;48.534;9.062;2023-04-20T11:55:22;11.23;;;7.03;;
76610;SDS011;65503;48.534;9.062;2023-04-20T11:57:49;12.00;;;6.60;;
76610;SDS011;65503;48.534;9.062;2023-04-20T12:00:15;11.52;;;6.50;;
76610;SDS011;65503;48.534;9.062;2023-04-20T12:02:43;10.00;;;6.32;;
76610;SDS011;65503;48.534;9.062;2023-04-20T12:05:10;9.98;;;6.07;;
76610;SDS011;65503;48.534;9.062;2023-04-20T12:07:37;12.23;;;6.22;;
76610;SDS011;65503;48.534;9.062;2023-04-20T12:10:04;10.27;;;6.50;;
76610;SDS011;65503;48.534;9.062;2023-04-20T12:12:31;10.07;;;6.00;;
76610;SDS011;65503;48.534;9.062;2023-04-20T12:14:59;12.63;;;7.45;;
76610;SDS011;65503;48.534;9.062;2023-04-20T12:17:25;10.07;;;5.90;;
76610;SDS011;65503;48.534;9.062;2023-04-20T12:19:51;12.77;;;6.55;;
76610;SDS011;65503;48.534;9.062;2023-04-20T12:22:18;10.45;;;6.13;;
76610;SDS011;65503;48.534;9.062;2023-04-20T12:24:44;9.90;;;6.00;;
76610;SDS011;65503;48.534;9.062;2023-04-20T12:27:11;13.10;;;6.60;;
76610;SDS011;65503;48.534;9.062;2023-04-20T12:29:37;11.38;;;6.18;;
76610;SDS011;65503;48.534;9.062;2023-04-20T12:32:03;11.38;;;6.57;;
76610;SDS011;65503;48.534;9.062;2023-04-20T12:34:30;11.32;;;6.35;;
76610;SDS011;65503;48.534;9.062;2023-04-20T12:36:56;9.02;;;5.50;;
76610;SDS011;65503;48.534;9.062;2023-04-20T12:39:23;10.73;;;5.85;;
76610;SDS011;65503;48.534;9.062;2023-04-20T12:41:49;10.18;;;5.53;;
76610;SDS011;65503;48.534;9.062;2023-04-20T12:44:16;10.82;;;6.28;;
76610;SDS011;65503;48.534;9.062;2023-04-20T12:46:43;9.50;;;5.43;;
76610;SDS011;65503;48.534;9.062;2023-04-20T12:49:09;7.85;;;4.60;;
76610;SDS011;65503;48.534;9.062;2023-04-20T12:51:36;10.85;;;5.40;;
76610;SDS011;65503;48.534;9.062;2023-04-20T12:54:02;8.10;;;4.90;;
76610;SDS011;65503;48.534;9.062;2023-04-20T12:56:29;8.40;;;4.75;;
76610;SDS011;65503;48.534;9.062;2023-04-20T12:58:55;9.13;;;4.90;;
76610;SDS011;65503;48.534;9.062;2023-04-20T13:01:22;7.85;;;4.47;;
76610;SDS011;65503;48.534;9.062;2023-04-20T13:03:49;7.70;;;4.47;;
76610;SDS011;65503;48.534;9.062;2023-04-20T13:06:17;8.15;;;4.93;;
76610;SDS011;65503;48.534;9.062;2023-04-20T13:08:43;7.35;;;4.53;;
76610;SDS011;65503;48.534;9.062;2023-04-20T13:11:10;7.47;;;4.32;;
76610;SDS011;65503;48.534;9.062;2023-04-20T13:13:37;9.00;;;5.20;;
76610;SDS011;65503;48.534;9.062;2023-04-20T13:16:03;10.55;;;5.40;;
76610;SDS011;65503;48.534;9.062;2023-04-20T13:18:30;9.80;;;4.90;;
76610;SDS011;65503;48.534;9.062;2023-04-20T13:20:56;9.43;;;5.13;;
76610;SDS011;65503;48.534;9.062;2023-04-20T13:23:23;9.77;;;4.40;;
76610;SDS011;65503;48.534;9.062;2023-04-20T13:25:49;8.45;;;4.68;;
76610;SDS011;65503;48.534;9.062;2023-04-20T13:28:17;9.45;;;5.22;;
76610;SDS011;65503;48.534;9.062;2023-04-20T13:30:44;12.35;;;5.35;;
76610;SDS011;65503;48.534;9.062;2023-04-20T13:33:11;8.40;;;5.10;;
76610;SDS011;65503;48.534;9.062;2023-04-20T13:35:38;9.18;;;5.07;;
76610;SDS011;65503;48.534;9.062;2023-04-20T13:38:05;8.52;;;5.15;;
76610;SDS011;65503;48.534;9.062;2023-04-20T13:40:33;8.85;;;5.30;;
76610;SDS011;65503;48.534;9.062;2023-04-20T13:42:59;9.32;;;4.95;;
76610;SDS011;65503;48.534;9.062;2023-04-20T13:45:26;8.82;;;4.85;;
76610;SDS011;65503;48.534;9.062;2023-04-20T13:47:53;8.52;;;4.72;;
76610;SDS011;65503;48.534;9.062;2023-04-20T13:50:19;10.75;;;5.50;;
76610;SDS011;65503;48.534;9.062;2023-04-20T13:52:46;10.30;;;5.38;;
76610;SDS011;65503;48.534;9.062;2023-04-20T13:55:12;9.27;;;5.32;;
76610;SDS011;65503;48.534;9.062;2023-04-20T13:57:39;9.10;;;5.65;;
76610;SDS011;65503;48.534;9.062;2023-04-20T14:00:06;9.32;;;5.25;;
76610;SDS011;65503;48.534;9.062;2023-04-20T14:02:33;9.40;;;5.75;;
76610;SDS011;65503;48.534;9.062;2023-04-20T14:04:59;9.70;;;5.53;;
76610;SDS011;65503;48.534;9.062;2023-04-20T14:07:26;8.32;;;5.07;;
76610;SDS011;65503;48.534;9.062;2023-04-20T14:09:52;9.05;;;5.40;;
76610;SDS011;65503;48.534;9.062;2023-04-20T14:12:21;11.20;;;6.88;;
76610;SDS011;65503;48.534;9.062;2023-04-20T14:14:48;9.57;;;6.35;;
76610;SDS011;65503;48.534;9.062;2023-04-20T14:17:14;11.43;;;6.47;;
76610;SDS011;65503;48.534;9.062;2023-04-20T14:19:41;11.40;;;6.78;;
76610;SDS011;65503;48.534;9.062;2023-04-20T14:22:07;10.93;;;6.55;;
76610;SDS011;65503;48.534;9.062;2023-04-20T14:24:34;12.15;;;5.88;;
76610;SDS011;65503;48.534;9.062;2023-04-20T14:27:01;10.77;;;6.55;;
76610;SDS011;65503;48.534;9.062;2023-04-20T14:29:27;10.27;;;6.70;;
76610;SDS011;65503;48.534;9.062;2023-04-20T14:31:54;13.10;;;7.28;;
76610;SDS011;65503;48.534;9.062;2023-04-20T14:34:20;12.88;;;8.07;;
76610;SDS011;65503;48.534;9.062;2023-04-20T14:36:47;13.55;;;8.15;;
76610;SDS011;65503;48.534;9.062;2023-04-20T14:39:14;13.48;;;7.57;;
76610;SDS011;65503;48.534;9.062;2023-04-20T14:41:40;12.43;;;7.47;;
76610;SDS011;65503;48.534;9.062;2023-04-20T14:44:07;12.93;;;8.40;;
76610;SDS011;65503;48.534;9.062;2023-04-20T14:46:33;13.45;;;8.52;;
76610;SDS011;65503;48.534;9.062;2023-04-20T14:49:00;13.60;;;8.63;;
76610;SDS011;65503;48.534;9.062;2023-04-20T14:51:26;14.40;;;8.40;;
76610;SDS011;65503;48.534;9.062;2023-04-20T14:53:53;14.32;;;8.25;;
76610;SDS011;65503;48.534;9.062;2023-04-20T14:56:19;14.77;;;8.65;;
76610;SDS011;65503;48.534;9.062;2023-04-20T14:58:46;15.48;;;9.70;;